logo
Search for airport 
image banner adimage banner adimage banner ad
image banner ad

SSUI - Fazenda Novo Horizonte

Located in Santa Fe Do Araguaia, Brazil

ICAO - SSUI, IATA -

Data provided by Airmate  

General information

Coordinates: S7°5'49" W48°45'37"
Elevation is 607 feet MSL.
Magnetic variation is -21.03015641° East
View others Airports in Tocatins

Operational data

Special qualification required
Current time UTC:
Current local time:
Weather at : - ( 0 km )
METAR: KOCH 251737Z AUTO 20009KT 1/2SM HZ FEW025 OVC032 30/25 A2986 RMK AO2 RVRNO
View NOTAMs / SUP AIP / TFR affecting this airport [VIEW]
Communications frequencies: [VIEW]

Runways:

RWY identifierQFULength (ft)Width (ft)SurfaceLDA (ft)
02393766ASPH
20393766ASPH

Airport contact information

Address: Santa Fe Do Araguaia Brazil

Satellite view of SSUI